sensor_id;sensor_type;location;lat;lon;timestamp;temperature;humidity
61912;DHT22;49973;52.084;5.412;2024-03-02T00:01:17;9.70;99.90
61912;DHT22;49973;52.084;5.412;2024-03-02T00:03:47;9.70;99.90
61912;DHT22;49973;52.084;5.412;2024-03-02T00:06:18;9.70;99.90
61912;DHT22;49973;52.084;5.412;2024-03-02T00:08:47;9.70;99.90
61912;DHT22;49973;52.084;5.412;2024-03-02T00:11:17;9.70;99.90
61912;DHT22;49973;52.084;5.412;2024-03-02T00:13:46;9.80;99.90
61912;DHT22;49973;52.084;5.412;2024-03-02T00:16:15;9.80;99.90
61912;DHT22;49973;52.084;5.412;2024-03-02T00:18:47;9.80;99.90
61912;DHT22;49973;52.084;5.412;2024-03-02T00:21:15;9.70;99.90
61912;DHT22;49973;52.084;5.412;2024-03-02T00:23:48;9.80;99.90
61912;DHT22;49973;52.084;5.412;2024-03-02T00:26:19;9.80;99.90
61912;DHT22;49973;52.084;5.412;2024-03-02T00:28:48;9.80;99.90
61912;DHT22;49973;52.084;5.412;2024-03-02T00:31:20;9.80;99.90
61912;DHT22;49973;52.084;5.412;2024-03-02T00:33:50;9.80;99.90
61912;DHT22;49973;52.084;5.412;2024-03-02T00:36:24;9.80;99.90
61912;DHT22;49973;52.084;5.412;2024-03-02T00:38:54;9.80;99.90
61912;DHT22;49973;52.084;5.412;2024-03-02T00:41:25;9.80;99.90
61912;DHT22;49973;52.084;5.412;2024-03-02T00:43:58;9.70;99.90
61912;DHT22;49973;52.084;5.412;2024-03-02T00:46:33;9.70;99.90
61912;DHT22;49973;52.084;5.412;2024-03-02T00:49:04;9.70;99.90
61912;DHT22;49973;52.084;5.412;2024-03-02T00:51:34;9.60;99.90
61912;DHT22;49973;52.084;5.412;2024-03-02T00:54:04;9.50;99.90
61912;DHT22;49973;52.084;5.412;2024-03-02T00:56:34;9.40;99.90
61912;DHT22;49973;52.084;5.412;2024-03-02T00:59:03;9.40;99.90
61912;DHT22;49973;52.084;5.412;2024-03-02T01:01:32;9.30;99.90
61912;DHT22;49973;52.084;5.412;2024-03-02T01:04:01;9.20;99.90
61912;DHT22;49973;52.084;5.412;2024-03-02T01:06:31;9.10;99.90
61912;DHT22;49973;52.084;5.412;2024-03-02T01:08:59;9.00;99.90
61912;DHT22;49973;52.084;5.412;2024-03-02T01:11:29;9.00;99.90
61912;DHT22;49973;52.084;5.412;2024-03-02T01:13:58;8.90;99.90
61912;DHT22;49973;52.084;5.412;2024-03-02T01:16:27;8.90;99.90
61912;DHT22;49973;52.084;5.412;2024-03-02T01:18:55;8.80;99.90
61912;DHT22;49973;52.084;5.412;2024-03-02T01:21:25;8.70;99.90
61912;DHT22;49973;52.084;5.412;2024-03-02T01:23:55;8.60;99.90
61912;DHT22;49973;52.084;5.412;2024-03-02T01:26:24;8.50;99.90
61912;DHT22;49973;52.084;5.412;2024-03-02T01:28:52;8.40;99.90
61912;DHT22;49973;52.084;5.412;2024-03-02T01:31:21;8.40;99.90
61912;DHT22;49973;52.084;5.412;2024-03-02T01:33:49;8.30;99.90
61912;DHT22;49973;52.084;5.412;2024-03-02T01:36:18;8.30;99.90
61912;DHT22;49973;52.084;5.412;2024-03-02T01:38:47;8.20;99.90
61912;DHT22;49973;52.084;5.412;2024-03-02T01:41:17;8.20;99.90
61912;DHT22;49973;52.084;5.412;2024-03-02T01:43:45;8.20;99.90
61912;DHT22;49973;52.084;5.412;2024-03-02T01:46:14;8.20;99.90
61912;DHT22;49973;52.084;5.412;2024-03-02T01:48:43;8.10;99.90
61912;DHT22;49973;52.084;5.412;2024-03-02T01:51:11;8.10;99.90
61912;DHT22;49973;52.084;5.412;2024-03-02T01:53:40;8.10;99.90
61912;DHT22;49973;52.084;5.412;2024-03-02T01:56:09;8.10;99.90
61912;DHT22;49973;52.084;5.412;2024-03-02T01:58:39;8.10;99.90
61912;DHT22;49973;52.084;5.412;2024-03-02T02:01:08;8.10;99.90
61912;DHT22;49973;52.084;5.412;2024-03-02T02:03:37;8.10;99.90
61912;DHT22;49973;52.084;5.412;2024-03-02T02:06:08;8.10;99.90
61912;DHT22;49973;52.084;5.412;2024-03-02T02:08:37;8.00;99.90
61912;DHT22;49973;52.084;5.412;2024-03-02T02:11:06;8.00;99.90
61912;DHT22;49973;52.084;5.412;2024-03-02T02:13:35;8.10;99.90
61912;DHT22;49973;52.084;5.412;2024-03-02T02:16:09;8.00;99.90
61912;DHT22;49973;52.084;5.412;2024-03-02T02:18:37;8.00;99.90
61912;DHT22;49973;52.084;5.412;2024-03-02T02:21:06;8.00;99.90
61912;DHT22;49973;52.084;5.412;2024-03-02T02:23:36;8.00;99.90
61912;DHT22;49973;52.084;5.412;2024-03-02T02:26:05;7.90;99.90
61912;DHT22;49973;52.084;5.412;2024-03-02T02:28:33;8.00;99.90
61912;DHT22;49973;52.084;5.412;2024-03-02T02:31:02;7.80;99.90
61912;DHT22;49973;52.084;5.412;2024-03-02T02:33:31;7.70;99.90
61912;DHT22;49973;52.084;5.412;2024-03-02T02:35:59;7.60;99.90
61912;DHT22;49973;52.084;5.412;2024-03-02T02:38:28;7.60;99.90
61912;DHT22;49973;52.084;5.412;2024-03-02T02:40:58;7.40;99.90
61912;DHT22;49973;52.084;5.412;2024-03-02T02:43:26;7.50;99.90
61912;DHT22;49973;52.084;5.412;2024-03-02T02:45:55;7.40;99.90
61912;DHT22;49973;52.084;5.412;2024-03-02T02:48:24;7.40;99.90
61912;DHT22;49973;52.084;5.412;2024-03-02T02:50:52;7.40;99.90
61912;DHT22;49973;52.084;5.412;2024-03-02T02:53:21;7.40;99.90
61912;DHT22;49973;52.084;5.412;2024-03-02T02:55:50;7.30;99.90
61912;DHT22;49973;52.084;5.412;2024-03-02T02:58:20;7.30;99.90
61912;DHT22;49973;52.084;5.412;2024-03-02T03:00:49;7.30;99.90
61912;DHT22;49973;52.084;5.412;2024-03-02T03:03:18;7.30;99.90
61912;DHT22;49973;52.084;5.412;2024-03-02T03:05:46;7.30;99.90
61912;DHT22;49973;52.084;5.412;2024-03-02T03:08:15;7.30;99.90
61912;DHT22;49973;52.084;5.412;2024-03-02T03:10:44;7.30;99.90
61912;DHT22;49973;52.084;5.412;2024-03-02T03:13:13;7.30;99.90
61912;DHT22;49973;52.084;5.412;2024-03-02T03:15:43;7.20;99.90
61912;DHT22;49973;52.084;5.412;2024-03-02T03:18:11;7.20;99.90
61912;DHT22;49973;52.084;5.412;2024-03-02T03:20:40;7.20;99.90
61912;DHT22;49973;52.084;5.412;2024-03-02T03:23:09;7.30;99.90
61912;DHT22;49973;52.084;5.412;2024-03-02T03:25:42;7.20;99.90
61912;DHT22;49973;52.084;5.412;2024-03-02T03:28:11;7.10;99.90
61912;DHT22;49973;52.084;5.412;2024-03-02T03:30:40;7.20;99.90
61912;DHT22;49973;52.084;5.412;2024-03-02T03:33:10;7.10;99.90
61912;DHT22;49973;52.084;5.412;2024-03-02T03:35:38;7.10;99.90
61912;DHT22;49973;52.084;5.412;2024-03-02T03:38:07;7.10;99.90
61912;DHT22;49973;52.084;5.412;2024-03-02T03:40:35;7.10;99.90
61912;DHT22;49973;52.084;5.412;2024-03-02T03:43:04;7.10;99.90
61912;DHT22;49973;52.084;5.412;2024-03-02T03:45:33;7.10;99.90
61912;DHT22;49973;52.084;5.412;2024-03-02T03:48:02;7.10;99.90
61912;DHT22;49973;52.084;5.412;2024-03-02T03:50:32;7.10;99.90
61912;DHT22;49973;52.084;5.412;2024-03-02T03:53:01;7.20;99.90
61912;DHT22;49973;52.084;5.412;2024-03-02T03:55:29;7.20;99.90
61912;DHT22;49973;52.084;5.412;2024-03-02T03:57:58;7.20;99.90
61912;DHT22;49973;52.084;5.412;2024-03-02T04:00:27;7.20;99.90
61912;DHT22;49973;52.084;5.412;2024-03-02T04:02:56;7.30;99.90
61912;DHT22;49973;52.084;5.412;2024-03-02T04:05:24;7.30;99.90
61912;DHT22;49973;52.084;5.412;2024-03-02T04:07:55;7.30;99.90
61912;DHT22;49973;52.084;5.412;2024-03-02T04:10:23;7.30;99.90
61912;DHT22;49973;52.084;5.412;2024-03-02T04:12:52;7.50;99.90
61912;DHT22;49973;52.084;5.412;2024-03-02T04:15:22;7.40;99.90
61912;DHT22;49973;52.084;5.412;2024-03-02T04:17:51;7.40;99.90
61912;DHT22;49973;52.084;5.412;2024-03-02T04:20:20;7.40;99.90
61912;DHT22;49973;52.084;5.412;2024-03-02T04:22:48;7.40;99.90
61912;DHT22;49973;52.084;5.412;2024-03-02T04:25:18;7.40;99.90
61912;DHT22;49973;52.084;5.412;2024-03-02T04:27:47;7.40;99.90
61912;DHT22;49973;52.084;5.412;2024-03-02T04:30:16;7.50;99.90
61912;DHT22;49973;52.084;5.412;2024-03-02T04:32:45;7.50;99.90
61912;DHT22;49973;52.084;5.412;2024-03-02T04:35:15;7.50;99.90
61912;DHT22;49973;52.084;5.412;2024-03-02T04:37:43;7.50;99.90
61912;DHT22;49973;52.084;5.412;2024-03-02T04:40:12;7.50;99.90
61912;DHT22;49973;52.084;5.412;2024-03-02T04:42:42;7.50;99.90
61912;DHT22;49973;52.084;5.412;2024-03-02T04:45:11;7.50;99.90
61912;DHT22;49973;52.084;5.412;2024-03-02T04:47:40;7.50;99.90
61912;DHT22;49973;52.084;5.412;2024-03-02T04:50:09;7.50;99.90
61912;DHT22;49973;52.084;5.412;2024-03-02T04:52:37;7.50;99.90
61912;DHT22;49973;52.084;5.412;2024-03-02T04:55:06;7.40;99.90
61912;DHT22;49973;52.084;5.412;2024-03-02T04:57:48;7.40;99.90
61912;DHT22;49973;52.084;5.412;2024-03-02T05:00:18;7.40;99.90
61912;DHT22;49973;52.084;5.412;2024-03-02T05:02:47;7.40;99.90
61912;DHT22;49973;52.084;5.412;2024-03-02T05:05:15;7.30;99.90
61912;DHT22;49973;52.084;5.412;2024-03-02T05:07:44;7.40;99.90
61912;DHT22;49973;52.084;5.412;2024-03-02T05:10:13;7.40;99.90
61912;DHT22;49973;52.084;5.412;2024-03-02T05:12:42;7.40;99.90
61912;DHT22;49973;52.084;5.412;2024-03-02T05:15:26;7.40;99.90
61912;DHT22;49973;52.084;5.412;2024-03-02T05:17:55;7.40;99.90
61912;DHT22;49973;52.084;5.412;2024-03-02T05:20:25;7.40;99.90
61912;DHT22;49973;52.084;5.412;2024-03-02T05:22:54;7.50;99.90
61912;DHT22;49973;52.084;5.412;2024-03-02T05:25:22;7.50;99.90
61912;DHT22;49973;52.084;5.412;2024-03-02T05:27:51;7.50;99.90
61912;DHT22;49973;52.084;5.412;2024-03-02T05:30:20;7.50;99.90
61912;DHT22;49973;52.084;5.412;2024-03-02T05:32:50;7.50;99.90
61912;DHT22;49973;52.084;5.412;2024-03-02T05:35:18;7.50;99.90
61912;DHT22;49973;52.084;5.412;2024-03-02T05:37:47;7.50;99.90
61912;DHT22;49973;52.084;5.412;2024-03-02T05:40:16;7.50;99.90
61912;DHT22;49973;52.084;5.412;2024-03-02T05:42:46;7.50;99.90
61912;DHT22;49973;52.084;5.412;2024-03-02T05:45:15;7.40;99.90
61912;DHT22;49973;52.084;5.412;2024-03-02T05:47:44;7.40;99.90
61912;DHT22;49973;52.084;5.412;2024-03-02T05:50:14;7.30;99.90
61912;DHT22;49973;52.084;5.412;2024-03-02T05:52:43;7.30;99.90
61912;DHT22;49973;52.084;5.412;2024-03-02T05:55:12;7.30;99.90
61912;DHT22;49973;52.084;5.412;2024-03-02T05:57:40;7.30;99.90
61912;DHT22;49973;52.084;5.412;2024-03-02T06:00:23;7.30;99.90
61912;DHT22;49973;52.084;5.412;2024-03-02T06:02:51;7.30;99.90
61912;DHT22;49973;52.084;5.412;2024-03-02T06:05:22;7.30;99.90
61912;DHT22;49973;52.084;5.412;2024-03-02T06:07:50;7.30;99.90
61912;DHT22;49973;52.084;5.412;2024-03-02T06:10:19;7.30;99.90
61912;DHT22;49973;52.084;5.412;2024-03-02T06:12:48;7.30;99.90
61912;DHT22;49973;52.084;5.412;2024-03-02T06:15:17;7.20;99.90
61912;DHT22;49973;52.084;5.412;2024-03-02T06:17:46;7.20;99.90
61912;DHT22;49973;52.084;5.412;2024-03-02T06:20:14;7.20;99.90
61912;DHT22;49973;52.084;5.412;2024-03-02T06:22:44;7.20;99.90
61912;DHT22;49973;52.084;5.412;2024-03-02T06:25:13;7.20;99.90
61912;DHT22;49973;52.084;5.412;2024-03-02T06:27:42;7.10;99.90
61912;DHT22;49973;52.084;5.412;2024-03-02T06:30:11;7.30;99.90
61912;DHT22;49973;52.084;5.412;2024-03-02T06:32:40;7.10;99.90
61912;DHT22;49973;52.084;5.412;2024-03-02T06:35:09;7.10;99.90
61912;DHT22;49973;52.084;5.412;2024-03-02T06:37:38;7.10;99.90
61912;DHT22;49973;52.084;5.412;2024-03-02T06:40:09;7.00;99.90
61912;DHT22;49973;52.084;5.412;2024-03-02T06:42:38;7.10;99.90
61912;DHT22;49973;52.084;5.412;2024-03-02T06:45:07;7.10;99.90
61912;DHT22;49973;52.084;5.412;2024-03-02T06:47:36;7.10;99.90
61912;DHT22;49973;52.084;5.412;2024-03-02T06:50:05;7.10;99.90
61912;DHT22;49973;52.084;5.412;2024-03-02T06:52:34;7.20;99.90
61912;DHT22;49973;52.084;5.412;2024-03-02T06:55:04;7.20;99.90
61912;DHT22;49973;52.084;5.412;2024-03-02T06:57:34;7.30;99.90
61912;DHT22;49973;52.084;5.412;2024-03-02T07:00:03;7.30;99.90
61912;DHT22;49973;52.084;5.412;2024-03-02T07:02:32;7.30;99.90
61912;DHT22;49973;52.084;5.412;2024-03-02T07:05:01;7.30;99.90
61912;DHT22;49973;52.084;5.412;2024-03-02T07:07:29;7.40;99.90
61912;DHT22;49973;52.084;5.412;2024-03-02T07:09:58;7.40;99.90
61912;DHT22;49973;52.084;5.412;2024-03-02T07:12:27;7.40;99.90
61912;DHT22;49973;52.084;5.412;2024-03-02T07:14:58;7.40;99.90
61912;DHT22;49973;52.084;5.412;2024-03-02T07:17:43;7.40;99.90
61912;DHT22;49973;52.084;5.412;2024-03-02T07:20:12;7.50;99.90
61912;DHT22;49973;52.084;5.412;2024-03-02T07:22:41;7.60;99.90
61912;DHT22;49973;52.084;5.412;2024-03-02T07:25:11;7.80;99.90
61912;DHT22;49973;52.084;5.412;2024-03-02T07:27:43;8.00;99.90
61912;DHT22;49973;52.084;5.412;2024-03-02T07:30:15;8.70;99.90
61912;DHT22;49973;52.084;5.412;2024-03-02T07:32:45;9.40;99.90
61912;DHT22;49973;52.084;5.412;2024-03-02T07:35:14;10.10;99.90
61912;DHT22;49973;52.084;5.412;2024-03-02T07:37:43;10.70;99.90
61912;DHT22;49973;52.084;5.412;2024-03-02T07:40:12;11.30;99.90
61912;DHT22;49973;52.084;5.412;2024-03-02T07:42:41;11.80;99.90
61912;DHT22;49973;52.084;5.412;2024-03-02T07:45:10;12.30;99.90
61912;DHT22;49973;52.084;5.412;2024-03-02T07:47:40;12.60;99.90
61912;DHT22;49973;52.084;5.412;2024-03-02T07:50:09;12.80;99.90
61912;DHT22;49973;52.084;5.412;2024-03-02T07:52:38;12.90;99.90
61912;DHT22;49973;52.084;5.412;2024-03-02T07:55:07;12.80;99.90
61912;DHT22;49973;52.084;5.412;2024-03-02T07:57:36;12.60;99.90
61912;DHT22;49973;52.084;5.412;2024-03-02T08:00:06;12.50;99.90
61912;DHT22;49973;52.084;5.412;2024-03-02T08:02:39;12.10;99.90
61912;DHT22;49973;52.084;5.412;2024-03-02T08:05:09;11.80;99.90
61912;DHT22;49973;52.084;5.412;2024-03-02T08:07:38;11.50;99.90
61912;DHT22;49973;52.084;5.412;2024-03-02T08:10:07;11.10;99.90
61912;DHT22;49973;52.084;5.412;2024-03-02T08:12:36;10.90;99.90
61912;DHT22;49973;52.084;5.412;2024-03-02T08:15:06;10.70;99.90
61912;DHT22;49973;52.084;5.412;2024-03-02T08:17:34;10.50;99.90
61912;DHT22;49973;52.084;5.412;2024-03-02T08:20:08;10.40;99.90
61912;DHT22;49973;52.084;5.412;2024-03-02T08:22:36;10.20;99.90
61912;DHT22;49973;52.084;5.412;2024-03-02T08:25:06;10.00;99.90
61912;DHT22;49973;52.084;5.412;2024-03-02T08:27:35;9.80;99.90
61912;DHT22;49973;52.084;5.412;2024-03-02T08:30:05;9.70;99.90
61912;DHT22;49973;52.084;5.412;2024-03-02T08:32:35;9.60;99.90
61912;DHT22;49973;52.084;5.412;2024-03-02T08:35:06;9.50;99.90
61912;DHT22;49973;52.084;5.412;2024-03-02T08:37:37;9.60;99.90
61912;DHT22;49973;52.084;5.412;2024-03-02T08:40:07;9.60;99.90
61912;DHT22;49973;52.084;5.412;2024-03-02T08:42:36;9.50;99.90
61912;DHT22;49973;52.084;5.412;2024-03-02T08:45:05;9.40;99.90
61912;DHT22;49973;52.084;5.412;2024-03-02T08:47:34;9.40;99.90
61912;DHT22;49973;52.084;5.412;2024-03-02T08:50:04;9.30;99.90
61912;DHT22;49973;52.084;5.412;2024-03-02T08:52:35;9.20;99.90
61912;DHT22;49973;52.084;5.412;2024-03-02T08:55:04;9.20;99.90
61912;DHT22;49973;52.084;5.412;2024-03-02T08:57:34;9.20;99.90
61912;DHT22;49973;52.084;5.412;2024-03-02T09:00:04;9.20;99.90
61912;DHT22;49973;52.084;5.412;2024-03-02T09:02:35;9.20;99.90
61912;DHT22;49973;52.084;5.412;2024-03-02T09:05:05;9.20;99.90
61912;DHT22;49973;52.084;5.412;2024-03-02T09:07:35;9.20;99.90
61912;DHT22;49973;52.084;5.412;2024-03-02T09:10:07;9.10;99.90
61912;DHT22;49973;52.084;5.412;2024-03-02T09:12:36;9.20;99.90
61912;DHT22;49973;52.084;5.412;2024-03-02T09:15:06;9.20;99.90
61912;DHT22;49973;52.084;5.412;2024-03-02T09:17:35;9.20;99.90
61912;DHT22;49973;52.084;5.412;2024-03-02T09:20:04;9.30;99.90
61912;DHT22;49973;52.084;5.412;2024-03-02T09:22:34;9.30;99.90
61912;DHT22;49973;52.084;5.412;2024-03-02T09:25:04;9.30;99.90
61912;DHT22;49973;52.084;5.412;2024-03-02T09:27:36;9.40;99.90
61912;DHT22;49973;52.084;5.412;2024-03-02T09:30:08;9.30;99.90
61912;DHT22;49973;52.084;5.412;2024-03-02T09:32:37;9.40;99.90
61912;DHT22;49973;52.084;5.412;2024-03-02T09:35:07;9.40;99.90
61912;DHT22;49973;52.084;5.412;2024-03-02T09:37:37;9.50;99.90
61912;DHT22;49973;52.084;5.412;2024-03-02T09:40:07;9.60;99.90
61912;DHT22;49973;52.084;5.412;2024-03-02T09:42:36;9.70;99.90
61912;DHT22;49973;52.084;5.412;2024-03-02T09:45:06;9.70;99.90
61912;DHT22;49973;52.084;5.412;2024-03-02T09:47:35;9.80;99.90
61912;DHT22;49973;52.084;5.412;2024-03-02T09:50:04;9.90;99.90
61912;DHT22;49973;52.084;5.412;2024-03-02T09:52:33;9.90;99.90
61912;DHT22;49973;52.084;5.412;2024-03-02T09:55:04;10.00;99.90
61912;DHT22;49973;52.084;5.412;2024-03-02T09:57:34;10.00;99.90
61912;DHT22;49973;52.084;5.412;2024-03-02T10:00:06;10.10;99.90
61912;DHT22;49973;52.084;5.412;2024-03-02T10:02:35;10.10;99.90
61912;DHT22;49973;52.084;5.412;2024-03-02T10:05:04;10.10;99.90
61912;DHT22;49973;52.084;5.412;2024-03-02T10:07:33;10.20;99.90
61912;DHT22;49973;52.084;5.412;2024-03-02T10:10:13;10.20;99.90
61912;DHT22;49973;52.084;5.412;2024-03-02T10:12:42;10.30;99.90
61912;DHT22;49973;52.084;5.412;2024-03-02T10:15:11;10.30;99.90
61912;DHT22;49973;52.084;5.412;2024-03-02T10:17:39;10.40;99.90
61912;DHT22;49973;52.084;5.412;2024-03-02T10:20:21;10.40;99.90
61912;DHT22;49973;52.084;5.412;2024-03-02T10:22:51;10.50;99.90
61912;DHT22;49973;52.084;5.412;2024-03-02T10:25:33;10.50;99.90
61912;DHT22;49973;52.084;5.412;2024-03-02T10:28:17;10.60;99.90
61912;DHT22;49973;52.084;5.412;2024-03-02T10:30:48;10.60;99.90
61912;DHT22;49973;52.084;5.412;2024-03-02T10:33:17;10.70;99.90
61912;DHT22;49973;52.084;5.412;2024-03-02T10:35:48;10.70;99.90
61912;DHT22;49973;52.084;5.412;2024-03-02T10:38:17;10.70;99.90
61912;DHT22;49973;52.084;5.412;2024-03-02T10:40:48;10.70;99.90
61912;DHT22;49973;52.084;5.412;2024-03-02T10:43:17;10.80;99.90
61912;DHT22;49973;52.084;5.412;2024-03-02T10:45:49;10.80;99.90
61912;DHT22;49973;52.084;5.412;2024-03-02T10:48:18;10.80;99.90
61912;DHT22;49973;52.084;5.412;2024-03-02T10:50:49;10.90;99.90
61912;DHT22;49973;52.084;5.412;2024-03-02T10:53:18;10.90;99.90
61912;DHT22;49973;52.084;5.412;2024-03-02T10:55:53;11.00;99.90
61912;DHT22;49973;52.084;5.412;2024-03-02T10:58:31;11.00;99.90
61912;DHT22;49973;52.084;5.412;2024-03-02T11:01:02;11.20;99.90
61912;DHT22;49973;52.084;5.412;2024-03-02T11:03:35;11.10;99.90
61912;DHT22;49973;52.084;5.412;2024-03-02T11:06:08;11.20;99.90
61912;DHT22;49973;52.084;5.412;2024-03-02T11:08:38;11.20;99.90
61912;DHT22;49973;52.084;5.412;2024-03-02T11:11:15;11.20;99.90
61912;DHT22;49973;52.084;5.412;2024-03-02T11:13:49;11.30;99.90
61912;DHT22;49973;52.084;5.412;2024-03-02T11:16:32;11.40;99.90
61912;DHT22;49973;52.084;5.412;2024-03-02T11:19:04;11.30;99.90
61912;DHT22;49973;52.084;5.412;2024-03-02T11:21:34;11.40;99.90
61912;DHT22;49973;52.084;5.412;2024-03-02T11:24:30;11.40;99.90
61912;DHT22;49973;52.084;5.412;2024-03-02T11:27:06;11.50;99.90
61912;DHT22;49973;52.084;5.412;2024-03-02T11:29:45;11.50;99.90
61912;DHT22;49973;52.084;5.412;2024-03-02T11:32:20;11.60;99.90
61912;DHT22;49973;52.084;5.412;2024-03-02T11:34:50;11.60;99.90
61912;DHT22;49973;52.084;5.412;2024-03-02T11:37:19;11.60;99.90
61912;DHT22;49973;52.084;5.412;2024-03-02T11:39:50;11.70;99.90
61912;DHT22;49973;52.084;5.412;2024-03-02T11:42:20;11.70;99.90
61912;DHT22;49973;52.084;5.412;2024-03-02T11:44:49;11.80;99.90
61912;DHT22;49973;52.084;5.412;2024-03-02T11:47:18;11.80;99.90
61912;DHT22;49973;52.084;5.412;2024-03-02T11:49:49;11.90;99.90
61912;DHT22;49973;52.084;5.412;2024-03-02T11:52:18;11.90;99.90
61912;DHT22;49973;52.084;5.412;2024-03-02T11:54:48;11.90;99.90
61912;DHT22;49973;52.084;5.412;2024-03-02T11:57:21;12.00;99.90
61912;DHT22;49973;52.084;5.412;2024-03-02T11:59:50;12.00;99.90
61912;DHT22;49973;52.084;5.412;2024-03-02T12:02:20;12.00;99.90
61912;DHT22;49973;52.084;5.412;2024-03-02T12:04:49;12.10;99.90
61912;DHT22;49973;52.084;5.412;2024-03-02T12:07:19;12.00;99.90
61912;DHT22;49973;52.084;5.412;2024-03-02T12:09:50;12.10;99.90
61912;DHT22;49973;52.084;5.412;2024-03-02T12:12:28;12.10;99.90
61912;DHT22;49973;52.084;5.412;2024-03-02T12:14:57;12.20;99.90
61912;DHT22;49973;52.084;5.412;2024-03-02T12:17:29;12.20;99.90
61912;DHT22;49973;52.084;5.412;2024-03-02T12:19:58;12.20;99.90
61912;DHT22;49973;52.084;5.412;2024-03-02T12:22:26;12.30;99.90
61912;DHT22;49973;52.084;5.412;2024-03-02T12:24:55;12.40;99.90
61912;DHT22;49973;52.084;5.412;2024-03-02T12:27:24;12.60;99.90
61912;DHT22;49973;52.084;5.412;2024-03-02T12:29:54;12.60;99.90
61912;DHT22;49973;52.084;5.412;2024-03-02T12:32:22;12.60;99.90
61912;DHT22;49973;52.084;5.412;2024-03-02T12:34:51;12.70;99.90
61912;DHT22;49973;52.084;5.412;2024-03-02T12:37:20;12.70;99.90
61912;DHT22;49973;52.084;5.412;2024-03-02T12:39:48;12.80;99.90
61912;DHT22;49973;52.084;5.412;2024-03-02T12:42:17;12.80;99.90
61912;DHT22;49973;52.084;5.412;2024-03-02T12:44:45;12.70;99.90
61912;DHT22;49973;52.084;5.412;2024-03-02T12:47:15;12.80;99.90
61912;DHT22;49973;52.084;5.412;2024-03-02T12:49:44;12.80;99.90
61912;DHT22;49973;52.084;5.412;2024-03-02T12:52:13;12.90;99.90
61912;DHT22;49973;52.084;5.412;2024-03-02T12:54:42;12.90;99.90
61912;DHT22;49973;52.084;5.412;2024-03-02T12:57:17;12.90;99.90
61912;DHT22;49973;52.084;5.412;2024-03-02T12:59:45;12.90;99.90
61912;DHT22;49973;52.084;5.412;2024-03-02T13:02:18;13.00;99.90
61912;DHT22;49973;52.084;5.412;2024-03-02T13:04:52;13.10;99.90
61912;DHT22;49973;52.084;5.412;2024-03-02T13:07:22;13.10;99.90
61912;DHT22;49973;52.084;5.412;2024-03-02T13:09:51;13.20;99.90
61912;DHT22;49973;52.084;5.412;2024-03-02T13:12:23;13.30;99.90
61912;DHT22;49973;52.084;5.412;2024-03-02T13:14:52;13.20;99.90
61912;DHT22;49973;52.084;5.412;2024-03-02T13:17:23;13.10;99.90
61912;DHT22;49973;52.084;5.412;2024-03-02T13:19:52;13.00;99.90
61912;DHT22;49973;52.084;5.412;2024-03-02T13:22:21;13.10;99.90
61912;DHT22;49973;52.084;5.412;2024-03-02T13:24:51;13.00;99.90
61912;DHT22;49973;52.084;5.412;2024-03-02T13:27:20;13.00;99.90
61912;DHT22;49973;52.084;5.412;2024-03-02T13:29:49;13.00;99.90
61912;DHT22;49973;52.084;5.412;2024-03-02T13:32:17;13.00;99.90
61912;DHT22;49973;52.084;5.412;2024-03-02T13:34:52;13.00;99.90
61912;DHT22;49973;52.084;5.412;2024-03-02T13:37:20;13.00;99.90
61912;DHT22;49973;52.084;5.412;2024-03-02T13:39:49;13.00;99.90
61912;DHT22;49973;52.084;5.412;2024-03-02T13:42:18;13.00;99.90
61912;DHT22;49973;52.084;5.412;2024-03-02T13:44:47;13.00;99.90
61912;DHT22;49973;52.084;5.412;2024-03-02T13:47:18;12.80;99.90
61912;DHT22;49973;52.084;5.412;2024-03-02T13:49:48;13.00;99.90
61912;DHT22;49973;52.084;5.412;2024-03-02T13:52:18;13.00;99.90
61912;DHT22;49973;52.084;5.412;2024-03-02T13:54:48;13.00;99.90
61912;DHT22;49973;52.084;5.412;2024-03-02T13:57:16;13.00;99.90
61912;DHT22;49973;52.084;5.412;2024-03-02T13:59:47;13.10;99.90
61912;DHT22;49973;52.084;5.412;2024-03-02T14:02:15;13.00;99.90
61912;DHT22;49973;52.084;5.412;2024-03-02T14:04:44;13.10;99.90
61912;DHT22;49973;52.084;5.412;2024-03-02T14:07:13;13.00;99.90
61912;DHT22;49973;52.084;5.412;2024-03-02T14:09:42;13.00;99.90
61912;DHT22;49973;52.084;5.412;2024-03-02T14:12:11;13.00;99.90
61912;DHT22;49973;52.084;5.412;2024-03-02T14:14:40;13.00;99.90
61912;DHT22;49973;52.084;5.412;2024-03-02T14:17:09;13.00;99.90
61912;DHT22;49973;52.084;5.412;2024-03-02T14:19:42;13.00;99.90
61912;DHT22;49973;52.084;5.412;2024-03-02T14:22:10;13.10;99.90
61912;DHT22;49973;52.084;5.412;2024-03-02T14:24:42;13.10;99.90
61912;DHT22;49973;52.084;5.412;2024-03-02T14:27:11;13.10;99.90
61912;DHT22;49973;52.084;5.412;2024-03-02T14:29:59;13.20;99.90
61912;DHT22;49973;52.084;5.412;2024-03-02T14:32:27;13.20;99.90
61912;DHT22;49973;52.084;5.412;2024-03-02T14:34:56;13.10;99.90
61912;DHT22;49973;52.084;5.412;2024-03-02T14:37:25;13.10;99.90
61912;DHT22;49973;52.084;5.412;2024-03-02T14:39:55;13.10;99.90
61912;DHT22;49973;52.084;5.412;2024-03-02T14:42:24;13.10;99.90
61912;DHT22;49973;52.084;5.412;2024-03-02T14:44:53;13.20;99.90
61912;DHT22;49973;52.084;5.412;2024-03-02T14:47:21;13.20;99.90
61912;DHT22;49973;52.084;5.412;2024-03-02T14:49:50;13.20;99.90
61912;DHT22;49973;52.084;5.412;2024-03-02T14:52:18;13.30;99.90
61912;DHT22;49973;52.084;5.412;2024-03-02T14:54:47;13.30;99.90
61912;DHT22;49973;52.084;5.412;2024-03-02T14:57:17;13.40;99.90
61912;DHT22;49973;52.084;5.412;2024-03-02T14:59:46;13.50;99.90
61912;DHT22;49973;52.084;5.412;2024-03-02T15:02:14;13.40;99.90
61912;DHT22;49973;52.084;5.412;2024-03-02T15:04:43;13.40;99.90
61912;DHT22;49973;52.084;5.412;2024-03-02T15:07:13;13.50;99.90
61912;DHT22;49973;52.084;5.412;2024-03-02T15:09:41;13.40;99.90
61912;DHT22;49973;52.084;5.412;2024-03-02T15:12:10;13.40;99.90
61912;DHT22;49973;52.084;5.412;2024-03-02T15:14:41;13.50;99.90
61912;DHT22;49973;52.084;5.412;2024-03-02T15:17:13;13.50;99.90
61912;DHT22;49973;52.084;5.412;2024-03-02T15:19:43;13.50;99.90
61912;DHT22;49973;52.084;5.412;2024-03-02T15:22:12;13.30;99.90
61912;DHT22;49973;52.084;5.412;2024-03-02T15:24:41;13.30;99.90
61912;DHT22;49973;52.084;5.412;2024-03-02T15:27:09;13.30;99.90
61912;DHT22;49973;52.084;5.412;2024-03-02T15:29:38;13.20;99.90
61912;DHT22;49973;52.084;5.412;2024-03-02T15:32:08;13.20;99.90
61912;DHT22;49973;52.084;5.412;2024-03-02T15:34:37;13.20;99.90
61912;DHT22;49973;52.084;5.412;2024-03-02T15:37:06;13.10;99.90
61912;DHT22;49973;52.084;5.412;2024-03-02T15:39:34;13.20;99.90
61912;DHT22;49973;52.084;5.412;2024-03-02T15:42:04;13.10;99.90
61912;DHT22;49973;52.084;5.412;2024-03-02T15:44:32;13.10;99.90
61912;DHT22;49973;52.084;5.412;2024-03-02T15:47:01;13.00;99.90
61912;DHT22;49973;52.084;5.412;2024-03-02T15:49:31;12.90;99.90
61912;DHT22;49973;52.084;5.412;2024-03-02T15:52:00;12.90;99.90
61912;DHT22;49973;52.084;5.412;2024-03-02T15:54:29;12.90;99.90
61912;DHT22;49973;52.084;5.412;2024-03-02T15:56:57;12.80;99.90